Time;durP1;ratioP1;P1;durP2;ratioP2;P2;SDS_P1;SDS_P2;PMS_P1;PMS_P2;Temp;Humidity;BMP_temperature;BMP_pressure;BME280_temperature;BME280_humidity;BME280_pressure;Samples;Min_cycle;Max_cycle;Signal;HPM_P1;HPM_P2
2023/01/04 00:00:48;;;;;;;8.00;4.38;;;7.80;99.90;;;;;;4974479;28;20103;-88
2023/01/04 00:03:15;;;;;;;9.07;4.57;;;7.80;99.90;;;;;;4973126;28;20428;-89
2023/01/04 00:05:44;;;;;;;10.70;5.25;;;8.00;99.90;;;;;;5004611;28;20168;-87
2023/01/04 00:08:12;;;;;;;10.98;4.68;;;7.90;99.90;;;;;;4989294;28;20059;-86
2023/01/04 00:10:41;;;;;;;8.68;4.75;;;8.90;99.90;;;;;;4972403;28;21262;-88
2023/01/04 00:13:10;;;;;;;9.20;4.70;;;7.80;99.90;;;;;;4988722;28;20136;-88
2023/01/04 00:15:45;;;;;;;7.88;4.95;;;7.90;99.90;;;;;;4992879;28;20041;-85
2023/01/04 00:18:13;;;;;;;8.82;5.07;;;8.00;99.90;;;;;;4975383;28;20101;-86
2023/01/04 00:20:41;;;;;;;11.68;5.20;;;8.50;99.90;;;;;;5002684;28;20064;-88
2023/01/04 00:23:16;;;;;;;13.25;5.43;;;7.40;99.90;;;;;;4973539;28;20176;-87
2023/01/04 00:25:44;;;;;;;7.65;5.18;;;7.00;99.90;;;;;;4990961;28;20053;-88
2023/01/04 00:28:19;;;;;;;9.82;4.95;;;7.80;99.90;;;;;;4993551;28;20049;-88
2023/01/04 00:30:45;;;;;;;9.00;5.43;;;7.90;99.90;;;;;;4992391;28;20486;-88
2023/01/04 00:33:11;;;;;;;8.32;4.82;;;8.10;99.90;;;;;;4990881;28;20041;-89
2023/01/04 00:35:37;;;;;;;9.93;5.35;;;7.30;99.90;;;;;;5002919;28;20049;-88
2023/01/04 00:38:03;;;;;;;11.23;5.25;;;6.80;99.90;;;;;;4993039;28;20133;-86
2023/01/04 00:40:36;;;;;;;7.95;5.10;;;8.00;99.90;;;;;;5005395;28;20140;-90
2023/01/04 00:43:05;;;;;;;6.75;5.03;;;8.00;99.90;;;;;;5009826;28;20042;-90
2023/01/04 00:45:31;;;;;;;10.60;4.85;;;7.90;99.90;;;;;;4993749;28;20128;-87
2023/01/04 00:47:56;;;;;;;9.23;4.78;;;8.40;99.90;;;;;;4989394;28;20046;-87
2023/01/04 00:50:28;;;;;;;10.40;4.45;;;8.10;99.90;;;;;;4989047;28;20528;-89
2023/01/04 00:52:56;;;;;;;8.55;4.63;;;7.90;99.90;;;;;;4991787;28;20479;-87
2023/01/04 00:55:54;;;;;;;8.23;4.82;;;7.90;99.90;;;;;;4982169;28;20510;-89
2023/01/04 00:58:42;;;;;;;9.18;4.30;;;8.00;99.90;;;;;;5008287;28;20143;-88
2023/01/04 01:01:14;;;;;;;8.45;4.40;;;8.00;99.90;;;;;;5007291;28;20037;-87
2023/01/04 01:03:42;;;;;;;8.77;4.50;;;7.00;99.90;;;;;;4990994;28;20505;-86
2023/01/04 01:06:11;;;;;;;9.35;4.32;;;7.90;99.90;;;;;;4993205;28;20053;-86
2023/01/04 01:08:40;;;;;;;8.40;4.90;;;8.00;99.90;;;;;;5007688;28;20116;-87
2023/01/04 01:11:19;;;;;;;;;;;;;;;;;;;;;
2023/01/04 01:13:46;;;;;;;8.48;4.60;;;8.10;99.90;;;;;;4987284;28;20061;-87
2023/01/04 01:16:20;;;;;;;7.35;4.10;;;8.10;99.90;;;;;;4991065;28;20046;-87
2023/01/04 01:18:46;;;;;;;6.82;4.18;;;7.90;99.90;;;;;;5012361;28;20155;-87
2023/01/04 01:21:22;;;;;;;6.82;3.88;;;8.00;99.90;;;;;;5010854;28;20050;-87
2023/01/04 01:23:53;;;;;;;9.65;4.72;;;7.90;99.90;;;;;;4992751;28;20054;-88
2023/01/04 01:26:26;;;;;;;5.35;3.72;;;9.50;99.90;;;;;;4989930;28;20067;-87
2023/01/04 01:29:05;;;;;;;7.90;4.15;;;8.00;99.90;;;;;;4974163;28;20068;-88
2023/01/04 01:31:31;;;;;;;4.63;3.22;;;9.40;99.90;;;;;;5008549;28;20038;-85
2023/01/04 01:34:10;;;;;;;7.00;4.10;;;8.00;99.90;;;;;;4978104;28;21451;-89
2023/01/04 01:36:41;;;;;;;5.53;3.65;;;8.10;99.90;;;;;;4989404;28;20056;-88
2023/01/04 01:39:14;;;;;;;5.72;3.53;;;8.00;99.90;;;;;;4971868;28;20049;-89
2023/01/04 01:41:48;;;;;;;6.15;3.53;;;8.00;99.90;;;;;;4992386;28;20510;-88
2023/01/04 01:44:45;;;;;;;6.60;3.40;;;7.90;99.90;;;;;;4992063;28;20089;-90
2023/01/04 01:47:50;;;;;;;6.35;3.20;;;8.00;99.90;;;;;;4987621;28;20566;-88
2023/01/04 01:50:32;;;;;;;6.65;3.03;;;8.10;99.90;;;;;;4991095;28;20590;-88
2023/01/04 01:53:03;;;;;;;5.68;3.42;;;7.00;99.90;;;;;;4994517;28;20534;-88
2023/01/04 01:55:31;;;;;;;3.72;2.85;;;8.20;99.90;;;;;;4998059;28;20050;-87
2023/01/04 01:58:00;;;;;;;5.32;3.20;;;7.90;99.90;;;;;;4997056;28;20085;-88
2023/01/04 02:00:32;;;;;;;4.20;3.00;;;8.00;99.90;;;;;;4985672;28;20133;-88
2023/01/04 02:03:04;;;;;;;5.40;2.83;;;8.20;99.90;;;;;;4985456;28;20073;-88
2023/01/04 02:05:34;;;;;;;4.75;3.10;;;6.90;99.90;;;;;;4999271;28;20056;-88
2023/01/04 02:08:07;;;;;;;6.32;2.92;;;8.10;99.90;;;;;;5017545;28;20476;-87
2023/01/04 02:10:46;;;;;;;;;;;;;;;;;;;;;
2023/01/04 02:13:18;;;;;;;5.07;2.78;;;8.20;99.90;;;;;;5028062;28;20049;-89
2023/01/04 02:16:08;;;;;;;4.82;2.95;;;8.20;99.90;;;;;;4996180;28;20588;-88
2023/01/04 02:18:49;;;;;;;4.50;2.75;;;8.10;99.90;;;;;;5006628;28;20049;-89
2023/01/04 02:21:46;;;;;;;4.35;2.90;;;8.10;99.90;;;;;;4992972;28;20056;-88
2023/01/04 02:24:34;;;;;;;4.78;2.70;;;8.20;99.90;;;;;;4970910;28;20049;-87
2023/01/04 02:27:28;;;;;;;4.43;2.40;;;8.20;99.90;;;;;;4997736;28;20072;-88
2023/01/04 02:30:26;;;;;;;3.92;2.45;;;8.20;99.90;;;;;;4993035;28;20052;-86
2023/01/04 02:33:20;;;;;;;6.05;2.30;;;8.20;99.90;;;;;;5008039;28;21982;-88
2023/01/04 02:35:58;;;;;;;8.20;2.65;;;7.50;99.90;;;;;;4993044;28;20042;-87
2023/01/04 02:38:52;;;;;;;6.05;2.78;;;7.50;99.90;;;;;;4991679;28;20400;-88
2023/01/04 02:41:36;;;;;;;4.75;3.50;;;8.30;99.90;;;;;;5012665;28;20467;-89
2023/01/04 02:50:29;;;;;;;10.57;3.70;;;8.30;99.90;;;;;;5013124;28;20075;-88
2023/01/04 02:50:34;;;;;;;8.30;3.17;;;8.50;99.90;;;;;;5011047;28;20057;-89
2023/01/04 02:53:16;;;;;;;7.57;2.75;;;8.50;99.90;;;;;;4992649;28;20482;-89
2023/01/04 02:56:34;;;;;;;12.73;2.67;;;8.50;99.90;;;;;;4999364;28;20092;-90
2023/01/04 02:59:40;;;;;;;9.50;2.33;;;8.60;99.90;;;;;;5005356;28;20391;-88
2023/01/04 03:08:50;;;;;;;8.35;2.03;;;9.00;99.90;;;;;;5019675;28;20433;-87
2023/01/04 03:14:26;;;;;;;11.68;2.58;;;9.10;99.90;;;;;;5008313;28;20049;-89
2023/01/04 03:16:55;;;;;;;11.82;3.08;;;9.20;99.90;;;;;;4995132;28;20659;-88
2023/01/04 03:37:44;;;;;;;12.75;3.08;;;9.40;99.90;;;;;;5007758;28;20826;-89
2023/01/04 03:49:18;;;;;;;13.77;3.10;;;9.50;99.90;;;;;;5011814;28;20130;-88
2023/01/04 03:51:55;;;;;;;11.35;3.15;;;9.60;99.90;;;;;;5006331;28;20088;-87
2023/01/04 03:54:44;;;;;;;13.85;2.65;;;9.50;99.90;;;;;;5008811;28;20046;-87
2023/01/04 03:57:23;;;;;;;15.75;3.08;;;9.60;99.90;;;;;;4991043;28;20054;-89
2023/01/04 04:00:08;;;;;;;9.95;2.92;;;9.60;99.90;;;;;;5010451;28;20439;-87
2023/01/04 04:02:52;;;;;;;;;;;;;;;;;;;;;
2023/01/04 04:14:15;;;;;;;14.70;3.08;;;9.30;99.90;;;;;;4996274;28;20467;-87
2023/01/04 04:16:43;;;;;;;13.48;3.03;;;9.70;99.90;;;;;;5003018;28;20089;-88
2023/01/04 04:19:31;;;;;;;10.70;2.78;;;9.90;99.90;;;;;;5007866;28;20053;-89
2023/01/04 04:22:01;;;;;;;12.90;3.35;;;8.60;99.90;;;;;;4988608;28;20053;-89
2023/01/04 04:24:29;;;;;;;16.48;3.80;;;8.90;99.90;;;;;;5005059;28;20041;-88
2023/01/04 04:26:57;;;;;;;18.92;3.85;;;9.70;99.90;;;;;;4991498;28;20441;-89
2023/01/04 04:29:30;;;;;;;14.45;3.30;;;9.70;99.90;;;;;;4990220;28;20048;-88
2023/01/04 04:32:06;;;;;;;19.00;3.30;;;9.90;99.90;;;;;;5011066;28;20115;-90
2023/01/04 04:34:42;;;;;;;21.50;3.65;;;9.80;99.90;;;;;;4992881;28;20132;-88
2023/01/04 04:37:07;;;;;;;;;;;9.90;99.90;;;;;;4991033;28;20049;-88
2023/01/04 04:39:36;;;;;;;24.45;3.30;;;9.80;99.90;;;;;;4991666;28;20385;-88
2023/01/04 04:42:04;;;;;;;21.30;3.70;;;9.70;99.90;;;;;;4992921;28;20042;-86
2023/01/04 04:44:40;;;;;;;21.38;4.07;;;9.70;99.90;;;;;;4971815;28;20064;-88
2023/01/04 04:47:11;;;;;;;13.55;3.03;;;8.50;99.90;;;;;;5010678;28;20092;-89
2023/01/04 04:49:41;;;;;;;15.65;2.83;;;8.90;99.90;;;;;;5006678;28;20229;-89
2023/01/04 04:52:13;;;;;;;13.13;3.10;;;9.80;99.90;;;;;;5008317;28;20050;-88
2023/01/04 04:54:46;;;;;;;8.80;2.42;;;9.80;99.90;;;;;;5006744;28;20084;-89
2023/01/04 04:57:18;;;;;;;12.50;2.30;;;9.90;99.90;;;;;;4989913;28;20038;-88
2023/01/04 04:59:49;;;;;;;12.90;2.53;;;9.70;99.90;;;;;;4991245;28;20399;-89
2023/01/04 05:02:17;;;;;;;11.20;2.40;;;9.80;99.90;;;;;;5004264;28;20049;-90
2023/01/04 05:04:46;;;;;;;9.57;2.05;;;11.00;99.90;;;;;;4992247;28;20073;-86
2023/01/04 05:07:12;;;;;;;12.50;2.42;;;9.70;99.90;;;;;;4991779;28;20076;-88
2023/01/04 05:09:38;;;;;;;14.88;2.72;;;9.70;99.90;;;;;;4992119;28;20086;-88
2023/01/04 05:15:02;;;;;;;11.88;2.80;;;9.90;99.90;;;;;;4999029;28;20129;-89
2023/01/04 05:17:38;;;;;;;12.95;2.83;;;9.80;99.90;;;;;;4975733;28;20041;-89
2023/01/04 05:20:04;;;;;;;13.20;2.42;;;9.90;99.90;;;;;;4987765;28;20057;-90
2023/01/04 05:22:35;;;;;;;14.32;2.72;;;9.80;99.90;;;;;;4993583;28;20053;-89
2023/01/04 05:25:10;;;;;;;8.13;2.20;;;9.80;99.90;;;;;;5004363;28;20086;-89
2023/01/04 05:27:43;;;;;;;8.73;1.88;;;10.20;99.90;;;;;;4994641;28;20042;-90
2023/01/04 05:33:12;;;;;;;8.50;2.00;;;9.70;99.90;;;;;;5017217;28;20101;-86
2023/01/04 05:35:53;;;;;;;;;;;;;;;;;;;;;
2023/01/04 05:38:30;;;;;;;18.10;2.60;;;10.00;99.90;;;;;;5005460;28;20395;-90
2023/01/04 05:42:23;;;;;;;14.88;2.50;;;9.80;99.90;;;;;;5021327;28;20060;-90
2023/01/04 05:44:17;;;;;;;23.08;3.13;;;9.80;99.90;;;;;;4998186;28;20050;-88
2023/01/04 05:46:52;;;;;;;16.00;3.08;;;10.00;99.90;;;;;;4990356;28;20077;-89
2023/01/04 05:49:26;;;;;;;21.63;3.60;;;10.00;99.90;;;;;;4993803;28;20038;-88
2023/01/04 05:51:52;;;;;;;15.98;3.75;;;10.10;99.90;;;;;;4994816;28;20052;-88
2023/01/04 05:54:30;;;;;;;16.35;3.85;;;9.90;99.90;;;;;;4993213;28;20037;-89
2023/01/04 05:56:58;;;;;;;28.70;4.70;;;10.10;99.90;;;;;;4962975;28;20578;-87
2023/01/04 05:59:24;;;;;;;36.30;5.90;;;10.00;99.90;;;;;;5009430;28;20120;-89
2023/01/04 06:02:02;;;;;;;38.70;7.22;;;10.00;99.90;;;;;;4994021;28;20081;-89
2023/01/04 06:04:28;;;;;;;34.72;6.15;;;10.20;99.90;;;;;;4995171;28;20139;-87
2023/01/04 06:06:58;;;;;;;33.85;5.70;;;10.10;99.90;;;;;;4999335;28;20077;-88
2023/01/04 06:09:33;;;;;;;38.85;6.00;;;10.00;99.90;;;;;;5011411;28;20045;-88
2023/01/04 06:12:01;;;;;;;53.15;6.00;;;10.00;99.90;;;;;;4997024;28;20045;-86
2023/01/04 06:14:46;;;;;;;38.05;5.60;;;11.00;99.90;;;;;;4990128;28;20049;-90
2023/01/04 06:17:29;;;;;;;34.63;5.33;;;10.70;99.90;;;;;;4992038;28;20593;-89
2023/01/04 06:20:03;;;;;;;30.83;5.43;;;9.90;99.90;;;;;;5000816;28;20176;-90
2023/01/04 06:22:41;;;;;;;31.45;5.32;;;10.10;99.90;;;;;;5016814;28;20109;-87
2023/01/04 06:25:15;;;;;;;29.45;5.38;;;10.00;99.90;;;;;;4992176;28;20522;-87
2023/01/04 06:27:49;;;;;;;35.55;5.35;;;10.00;99.90;;;;;;4978328;28;20479;-88
2023/01/04 06:30:28;;;;;;;;;;;;;;;;;;;;;
2023/01/04 06:32:56;;;;;;;38.10;6.00;;;10.10;99.90;;;;;;5004416;28;20045;-88
2023/01/04 06:35:25;;;;;;;32.33;5.53;;;10.10;99.90;;;;;;5004825;28;20388;-88
2023/01/04 06:37:51;;;;;;;26.30;5.10;;;9.40;99.90;;;;;;5026768;28;20061;-89
2023/01/04 06:40:27;;;;;;;25.50;4.60;;;10.30;99.90;;;;;;4989946;28;20053;-89
2023/01/04 06:42:55;;;;;;;32.08;5.10;;;10.10;99.90;;;;;;4976425;28;20046;-87
2023/01/04 06:45:24;;;;;;;35.67;5.25;;;10.20;99.90;;;;;;4993480;28;20125;-89
2023/01/04 06:47:53;;;;;;;26.83;5.28;;;10.10;99.90;;;;;;5011771;28;20052;-89
2023/01/04 06:50:22;;;;;;;28.95;6.15;;;9.60;99.90;;;;;;4992653;28;20232;-86
2023/01/04 06:52:48;;;;;;;34.30;5.45;;;10.10;99.90;;;;;;4990875;28;20518;-83
2023/01/04 06:55:16;;;;;;;23.13;4.22;;;10.10;99.90;;;;;;5006526;28;20081;-85
2023/01/04 06:57:44;;;;;;;29.65;5.55;;;10.10;99.90;;;;;;4991448;28;20061;-84
2023/01/04 07:00:11;;;;;;;26.15;5.20;;;10.10;99.90;;;;;;4974483;28;20061;-85
2023/01/04 07:02:37;;;;;;;28.20;4.70;;;10.30;99.90;;;;;;4995124;28;20104;-84
2023/01/04 07:05:03;;;;;;;27.63;4.80;;;10.10;99.90;;;;;;5008841;28;20045;-86
2023/01/04 07:07:29;;;;;;;30.02;5.53;;;10.20;99.90;;;;;;4992358;28;20054;-84
2023/01/04 07:10:18;;;;;;;30.20;4.95;;;10.10;99.90;;;;;;4996445;28;20050;-84
2023/01/04 07:12:44;;;;;;;36.47;5.57;;;10.00;99.90;;;;;;5025106;28;20442;-86
2023/01/04 07:15:36;;;;;;;34.20;5.13;;;10.10;99.90;;;;;;4995564;28;20049;-87
2023/01/04 07:18:05;;;;;;;32.35;4.90;;;10.20;99.90;;;;;;5010569;28;20054;-86
2023/01/04 07:20:31;;;;;;;28.92;4.65;;;10.20;99.90;;;;;;4979568;28;20137;-88
2023/01/04 07:22:59;;;;;;;30.23;4.85;;;10.20;99.90;;;;;;4994579;28;20782;-90
2023/01/04 07:25:28;;;;;;;23.55;4.95;;;10.20;99.90;;;;;;4991903;28;20133;-88
2023/01/04 07:29:13;;;;;;;23.30;4.35;;;10.10;99.90;;;;;;4993106;28;20214;-90
2023/01/04 07:31:06;;;;;;;28.27;4.30;;;10.20;99.90;;;;;;5016031;28;20046;-89
2023/01/04 07:33:35;;;;;;;23.63;4.38;;;10.20;99.90;;;;;;4999082;28;20054;-89
2023/01/04 07:36:04;;;;;;;27.00;4.57;;;10.00;99.90;;;;;;4979403;28;20049;-89
2023/01/04 07:38:43;;;;;;;;;;;;;;;;;;;;;
2023/01/04 07:41:12;;;;;;;34.83;5.45;;;9.80;99.90;;;;;;4995902;28;20163;-88
2023/01/04 07:43:40;;;;;;;33.47;4.97;;;10.10;99.90;;;;;;5001129;28;20057;-89
2023/01/04 07:46:18;;;;;;;;;;;;;;;;;;;;;
2023/01/04 07:49:01;;;;;;;29.52;4.55;;;10.20;99.90;;;;;;5014195;28;20069;-88
2023/01/04 07:51:32;;;;;;;28.48;4.70;;;10.10;99.90;;;;;;4980647;28;20041;-87
2023/01/04 07:54:16;;;;;;;20.50;4.35;;;11.10;99.90;;;;;;4992322;28;20505;-88
2023/01/04 07:56:47;;;;;;;25.80;5.10;;;10.20;99.90;;;;;;5017193;28;20042;-87
2023/01/04 07:59:15;;;;;;;27.92;5.57;;;10.10;99.90;;;;;;5018306;28;20049;-89
2023/01/04 08:01:49;;;;;;;31.15;5.82;;;10.20;99.90;;;;;;5017050;28;20058;-88
2023/01/04 08:05:03;;;;;;;24.50;5.03;;;10.20;99.90;;;;;;4998312;28;20091;-88
2023/01/04 08:07:27;;;;;;;32.67;5.50;;;10.20;99.90;;;;;;4988439;28;20068;-89
2023/01/04 08:10:01;;;;;;;34.92;6.80;;;10.10;99.90;;;;;;4982233;28;20609;-88
2023/01/04 08:12:50;;;;;;;39.67;6.22;;;10.30;99.90;;;;;;5000398;28;20045;-88
2023/01/04 08:15:31;;;;;;;31.70;5.70;;;9.30;99.90;;;;;;4996509;28;20061;-89
2023/01/04 08:18:17;;;;;;;28.35;4.93;;;8.90;99.90;;;;;;4980986;28;20068;-90
2023/01/04 08:21:14;;;;;;;32.85;5.90;;;10.30;99.90;;;;;;4996432;28;20042;-88
2023/01/04 08:24:26;;;;;;;33.33;5.25;;;10.10;99.90;;;;;;4995481;28;20057;-88
2023/01/04 08:27:12;;;;;;;;;;;;;;;;;;;;;
2023/01/04 08:30:23;;;;;;;32.40;6.32;;;10.00;99.90;;;;;;5012315;28;20083;-89
2023/01/04 08:33:00;;;;;;;34.20;6.70;;;10.20;99.90;;;;;;4992807;28;20053;-90
2023/01/04 08:35:33;;;;;;;31.83;6.00;;;9.70;99.90;;;;;;5000496;28;20468;-89
2023/01/04 08:38:06;;;;;;;39.15;6.05;;;10.20;99.90;;;;;;4994232;28;20061;-89
2023/01/04 08:40:55;;;;;;;37.00;6.53;;;10.30;99.90;;;;;;4993944;28;20046;-88
2023/01/04 08:43:35;;;;;;;35.00;6.72;;;9.10;99.90;;;;;;4977602;28;20053;-87
2023/01/04 08:46:18;;;;;;;;;;;;;;;;;;;;;
2023/01/04 08:48:45;;;;;;;42.05;7.15;;;10.20;99.90;;;;;;5018658;28;20056;-86
2023/01/04 08:51:20;;;;;;;43.00;6.75;;;10.20;99.90;;;;;;4982205;28;20100;-89
2023/01/04 08:53:51;;;;;;;42.95;7.32;;;10.30;99.90;;;;;;4999517;28;20092;-89
2023/01/04 08:56:39;;;;;;;43.67;6.78;;;10.30;99.90;;;;;;5022633;28;20049;-87
2023/01/04 08:59:22;;;;;;;35.05;6.50;;;10.30;99.90;;;;;;5024230;28;20070;-90
2023/01/04 09:02:09;;;;;;;40.10;7.07;;;10.40;99.90;;;;;;5004751;28;20065;-89
2023/01/04 09:07:52;;;;;;;33.83;6.80;;;10.10;99.90;;;;;;5009955;28;20444;-87
2023/01/04 09:10:19;;;;;;;41.35;6.68;;;10.30;99.90;;;;;;4991078;28;20504;-89
2023/01/04 09:12:59;;;;;;;35.40;7.20;;;10.30;99.90;;;;;;4993838;28;20130;-90
2023/01/04 09:15:25;;;;;;;37.28;6.43;;;9.70;99.90;;;;;;4981882;28;20233;-82
2023/01/04 09:17:51;;;;;;;35.25;6.15;;;10.30;99.90;;;;;;4981029;28;20491;-82
2023/01/04 09:20:16;;;;;;;43.13;6.43;;;10.30;99.90;;;;;;4992186;28;20057;-81
2023/01/04 09:22:42;;;;;;;36.50;5.97;;;10.30;99.90;;;;;;4996747;28;20054;-81
2023/01/04 09:25:08;;;;;;;36.63;6.63;;;10.40;99.90;;;;;;4981445;28;20506;-80
2023/01/04 09:27:34;;;;;;;32.88;7.30;;;10.40;99.90;;;;;;5016163;28;20049;-81
2023/01/04 09:29:59;;;;;;;40.25;7.32;;;10.40;99.90;;;;;;4999671;28;20061;-81
2023/01/04 09:32:26;;;;;;;32.90;6.03;;;10.40;99.90;;;;;;5010246;28;20121;-82
2023/01/04 09:34:52;;;;;;;37.47;6.68;;;10.50;99.90;;;;;;4983199;28;20049;-81
2023/01/04 09:37:18;;;;;;;28.48;6.22;;;10.50;99.90;;;;;;5011541;28;20372;-81
2023/01/04 09:39:44;;;;;;;31.15;5.60;;;10.50;99.90;;;;;;4983482;28;20486;-81
2023/01/04 09:42:37;;;;;;;38.10;5.75;;;10.50;99.90;;;;;;4992845;28;20053;-81
2023/01/04 09:45:11;;;;;;;33.95;6.47;;;10.60;99.90;;;;;;5013252;28;20050;-81
2023/01/04 09:47:49;;;;;;;30.15;5.30;;;10.60;99.90;;;;;;4996249;28;20084;-81
2023/01/04 09:50:30;;;;;;;37.85;6.32;;;10.60;99.90;;;;;;5012246;28;20041;-82
2023/01/04 09:52:59;;;;;;;36.35;6.97;;;10.70;99.90;;;;;;5011136;28;20123;-81
2023/01/04 09:55:44;;;;;;;34.75;7.13;;;10.70;99.90;;;;;;4995623;28;20060;-81
2023/01/04 09:58:28;;;;;;;29.30;5.63;;;10.70;99.90;;;;;;4996524;28;20133;-88
2023/01/04 10:01:24;;;;;;;31.25;6.13;;;10.70;99.90;;;;;;4994671;28;20057;-89
2023/01/04 10:04:20;;;;;;;36.90;6.83;;;10.10;99.90;;;;;;4988773;28;20053;-87
2023/01/04 10:06:48;;;;;;;31.17;5.85;;;;;;;;;;4996659;28;20041;-86
2023/01/04 10:09:28;;;;;;;32.70;5.70;;;10.80;99.90;;;;;;4995248;28;20045;-88
2023/01/04 10:12:30;;;;;;;34.67;6.88;;;10.80;99.90;;;;;;4981988;28;20058;-86
2023/01/04 10:15:31;;;;;;;31.55;6.15;;;10.80;99.90;;;;;;4995672;28;20564;-89
2023/01/04 10:18:20;;;;;;;42.95;7.45;;;10.80;99.90;;;;;;5014200;28;20037;-85
2023/01/04 10:21:08;;;;;;;34.85;6.72;;;10.80;99.90;;;;;;4977831;28;20499;-87
2023/01/04 10:23:42;;;;;;;35.65;6.75;;;10.80;99.90;;;;;;4996142;28;20060;-88
2023/01/04 10:26:23;;;;;;;30.88;6.88;;;10.80;99.90;;;;;;5001355;28;20046;-87
2023/01/04 10:29:24;;;;;;;38.20;7.30;;;10.90;99.90;;;;;;5003619;28;20166;-90
2023/01/04 10:32:21;;;;;;;;;;;;;;;;;;;;;
2023/01/04 10:35:26;;;;;;;43.13;6.97;;;10.90;99.90;;;;;;5021258;28;20054;-88
2023/01/04 10:38:06;;;;;;;34.92;6.40;;;11.00;99.90;;;;;;4981937;28;20149;-90
2023/01/04 10:40:46;;;;;;;30.73;5.75;;;10.90;99.90;;;;;;5010343;28;20123;-89
2023/01/04 10:43:48;;;;;;;;;;;;;;;;;;;;;
2023/01/04 10:46:27;;;;;;;27.80;6.45;;;11.00;99.90;;;;;;5015116;28;20085;-89
2023/01/04 10:49:01;;;;;;;35.50;6.75;;;10.40;99.90;;;;;;5008924;28;20065;-87
2023/01/04 10:52:07;;;;;;;35.95;7.85;;;11.00;99.90;;;;;;4993367;28;20041;-90
2023/01/04 10:55:03;;;;;;;36.42;6.72;;;10.50;99.90;;;;;;4997546;28;20057;-91
2023/01/04 10:57:50;;;;;;;;;;;;;;;;;;;;;
2023/01/04 11:00:28;;;;;;;35.90;7.38;;;10.60;99.90;;;;;;5013152;28;20050;-90
2023/01/04 11:03:04;;;;;;;37.45;6.45;;;11.00;99.90;;;;;;4995427;28;20041;-87
2023/01/04 11:05:43;;;;;;;;;;;11.00;99.90;;;;;;4997529;28;20057;-90
2023/01/04 11:08:33;;;;;;;38.90;7.43;;;10.90;99.90;;;;;;4991171;28;19930;-86
2023/01/04 11:11:17;;;;;;;35.15;7.05;;;10.90;99.90;;;;;;5014448;28;20045;-87
2023/01/04 11:13:43;;;;;;;38.58;6.25;;;13.00;99.90;;;;;;4994421;28;20053;-88
2023/01/04 11:16:33;;;;;;;32.67;5.90;;;10.90;99.90;;;;;;5003590;28;20102;-88
2023/01/04 11:19:07;;;;;;;33.55;7.18;;;11.00;99.90;;;;;;5015172;28;20046;-92
2023/01/04 11:21:55;;;;;;;43.75;7.15;;;10.90;99.90;;;;;;5012229;28;20560;-90
2023/01/04 11:24:45;;;;;;;28.05;5.90;;;11.00;99.90;;;;;;5011050;28;20081;-91
2023/01/04 11:27:41;;;;;;;32.08;6.05;;;11.00;99.90;;;;;;4989075;28;20494;-90
2023/01/04 11:30:51;;;;;;;34.65;6.60;;;10.30;99.90;;;;;;4989759;28;20144;-88
2023/01/04 11:33:39;;;;;;;27.90;4.78;;;11.50;99.90;;;;;;4989370;28;20141;-89
2023/01/04 11:36:11;;;;;;;34.50;7.07;;;11.00;99.90;;;;;;4993157;28;20053;-89
2023/01/04 11:38:57;;;;;;;32.65;5.20;;;11.00;99.90;;;;;;5005449;28;20050;-90
2023/01/04 11:41:26;;;;;;;22.67;5.47;;;11.00;99.90;;;;;;4994639;28;20101;-89
2023/01/04 11:44:07;;;;;;;27.55;5.57;;;11.20;99.90;;;;;;5009873;28;20526;-89
2023/01/04 11:50:57;;;;;;;;;;;;;;;;;;;;;
2023/01/04 11:53:45;;;;;;;31.02;5.97;;;11.00;99.90;;;;;;5012220;28;20073;-86
2023/01/04 11:56:22;;;;;;;24.23;5.50;;;10.90;99.90;;;;;;4993544;28;20672;-87
2023/01/04 11:59:22;;;;;;;31.55;5.57;;;10.90;99.90;;;;;;5012135;28;20046;-87
2023/01/04 12:02:30;;;;;;;29.55;5.93;;;10.90;99.90;;;;;;4992972;28;20048;-89
2023/01/04 12:05:24;;;;;;;26.83;5.05;;;11.00;99.90;;;;;;4993688;28;20062;-91
2023/01/04 12:08:01;;;;;;;32.83;6.05;;;11.00;99.90;;;;;;5020723;28;20121;-87
2023/01/04 12:10:50;;;;;;;26.60;5.25;;;10.80;99.90;;;;;;4978817;28;20484;-88
2023/01/04 12:13:19;;;;;;;26.13;5.78;;;10.90;99.90;;;;;;4997537;28;20096;-89
2023/01/04 12:15:55;;;;;;;33.22;5.20;;;11.20;99.90;;;;;;4994835;28;20503;-91
2023/01/04 12:18:43;;;;;;;;;;;10.30;99.90;;;;;;4996183;28;20058;-89
2023/01/04 12:21:24;;;;;;;30.98;5.22;;;10.80;99.90;;;;;;5009228;28;20023;-85
2023/01/04 12:24:06;;;;;;;27.02;4.43;;;10.70;99.90;;;;;;5008817;28;20052;-88
2023/01/04 12:26:32;;;;;;;22.42;4.15;;;10.80;99.90;;;;;;4989810;28;20041;-85
2023/01/04 12:29:21;;;;;;;33.55;5.03;;;12.10;99.90;;;;;;4993672;28;20105;-89
2023/01/04 12:32:10;;;;;;;21.20;4.18;;;10.80;99.90;;;;;;5011093;28;20045;-89
2023/01/04 12:34:46;;;;;;;28.65;5.18;;;10.90;99.90;;;;;;5011958;28;20060;-86
2023/01/04 12:37:44;;;;;;;29.40;4.75;;;10.80;99.90;;;;;;5012492;28;20061;-86
2023/01/04 12:40:44;;;;;;;26.08;4.32;;;10.70;99.90;;;;;;4997414;28;20402;-86
2023/01/04 12:43:36;;;;;;;27.23;4.90;;;10.70;99.90;;;;;;5008285;28;20049;-87
2023/01/04 12:49:26;;;;;;;22.08;5.03;;;10.70;99.90;;;;;;5007075;28;20495;-87
2023/01/04 12:52:08;;;;;;;25.73;5.00;;;10.70;99.90;;;;;;5010082;28;20065;-86
2023/01/04 12:55:10;;;;;;;;;;;;;;;;;;;;;
2023/01/04 12:57:37;;;;;;;28.63;5.40;;;10.70;99.90;;;;;;4999032;28;20049;-86
2023/01/04 13:00:05;;;;;;;30.55;5.90;;;10.70;99.90;;;;;;4993838;28;20045;-88
2023/01/04 13:02:32;;;;;;;32.72;5.00;;;10.70;99.90;;;;;;4996191;28;20048;-88
2023/01/04 13:05:21;;;;;;;31.45;5.97;;;10.90;99.90;;;;;;4998445;28;20046;-86
2023/01/04 13:07:51;;;;;;;30.00;5.00;;;10.80;99.90;;;;;;4983941;28;20105;-85
2023/01/04 13:10:41;;;;;;;31.15;5.90;;;10.80;99.90;;;;;;4990600;28;20050;-89
2023/01/04 13:13:25;;;;;;;30.05;5.35;;;10.80;99.90;;;;;;5012134;28;20046;-86
2023/01/04 13:16:10;;;;;;;18.88;4.55;;;10.70;99.90;;;;;;5013551;28;20052;-85
2023/01/04 13:18:38;;;;;;;29.92;6.03;;;10.70;99.90;;;;;;5008237;28;20049;-86
2023/01/04 13:21:11;;;;;;;36.47;6.40;;;10.70;99.90;;;;;;5012915;28;20508;-86
2023/01/04 13:23:38;;;;;;;32.13;6.65;;;10.70;99.90;;;;;;5004734;28;20046;-86
2023/01/04 13:26:37;;;;;;;30.52;5.40;;;10.70;99.90;;;;;;4962736;28;20103;-86
2023/01/04 13:29:21;;;;;;;27.15;6.28;;;10.70;99.90;;;;;;4995118;28;20402;-86
2023/01/04 13:31:56;;;;;;;33.22;4.88;;;10.60;99.90;;;;;;4998640;28;20072;-86
2023/01/04 13:34:36;;;;;;;31.20;6.90;;;11.00;99.90;;;;;;4992296;28;20046;-86
2023/01/04 13:37:16;;;;;;;29.25;5.90;;;10.50;99.90;;;;;;5027858;28;20041;-85
2023/01/04 13:39:51;;;;;;;33.20;5.18;;;10.60;99.90;;;;;;5013721;28;20128;-86
2023/01/04 13:42:23;;;;;;;35.25;5.65;;;10.60;99.90;;;;;;5000815;28;20050;-86
2023/01/04 13:45:00;;;;;;;26.98;5.57;;;10.80;99.90;;;;;;4999218;28;20050;-86
2023/01/04 13:47:33;;;;;;;29.08;5.88;;;10.60;99.90;;;;;;4992540;28;20054;-87
2023/01/04 13:50:05;;;;;;;26.05;4.63;;;10.70;99.90;;;;;;5009488;28;20127;-87
2023/01/04 13:52:41;;;;;;;26.02;5.07;;;10.70;99.90;;;;;;4998006;28;20057;-87
2023/01/04 13:55:23;;;;;;;25.88;5.13;;;10.60;99.90;;;;;;5012617;28;20081;-87
2023/01/04 13:57:57;;;;;;;32.90;6.32;;;10.70;99.90;;;;;;5015374;28;20050;-86
2023/01/04 14:00:35;;;;;;;33.88;5.30;;;10.70;99.90;;;;;;5016766;28;20116;-85
2023/01/04 14:03:13;;;;;;;30.30;5.72;;;10.60;99.90;;;;;;5016935;28;20068;-87
2023/01/04 14:05:48;;;;;;;29.10;4.80;;;10.70;99.90;;;;;;5002932;28;20394;-84
2023/01/04 14:08:20;;;;;;;26.15;5.38;;;10.70;99.90;;;;;;5001347;28;20045;-85
2023/01/04 14:10:47;;;;;;;31.67;4.80;;;10.80;99.90;;;;;;5003282;28;20042;-86
2023/01/04 14:13:23;;;;;;;23.30;5.10;;;10.60;99.90;;;;;;5015495;28;20046;-87
2023/01/04 14:16:13;;;;;;;39.38;5.65;;;10.60;99.90;;;;;;4998894;28;20077;-86
2023/01/04 14:18:39;;;;;;;27.42;6.20;;;10.60;99.90;;;;;;4999083;28;20057;-85
2023/01/04 14:21:17;;;;;;;32.08;6.38;;;10.60;99.90;;;;;;5002442;28;20503;-85
2023/01/04 14:23:45;;;;;;;28.45;6.35;;;10.50;99.90;;;;;;5028250;28;20131;-85
2023/01/04 14:26:40;;;;;;;31.23;5.35;;;10.50;99.90;;;;;;5016777;28;20054;-89
2023/01/04 14:29:28;;;;;;;27.58;5.72;;;10.50;99.90;;;;;;4997887;28;20669;-84
2023/01/04 14:31:54;;;;;;;24.67;4.90;;;11.20;99.90;;;;;;5015159;28;20042;-86
2023/01/04 14:34:20;;;;;;;29.60;6.45;;;10.60;99.90;;;;;;4996844;28;20045;-85
2023/01/04 14:36:46;;;;;;;20.90;4.88;;;10.60;99.90;;;;;;4997735;28;20041;-85
2023/01/04 14:39:25;;;;;;;30.38;5.78;;;10.60;99.90;;;;;;4982633;28;20053;-89
2023/01/04 14:41:58;;;;;;;25.73;6.32;;;10.50;99.90;;;;;;4995083;28;20391;-87
2023/01/04 14:44:27;;;;;;;32.80;5.85;;;10.50;99.90;;;;;;5012694;28;20084;-87
2023/01/04 14:46:55;;;;;;;30.80;5.82;;;10.50;99.90;;;;;;4993228;28;20045;-81
2023/01/04 14:49:22;;;;;;;28.45;5.78;;;10.50;99.90;;;;;;4991648;28;20601;-82
2023/01/04 14:51:51;;;;;;;28.17;5.07;;;10.50;99.90;;;;;;4988456;28;20039;-80
2023/01/04 14:54:19;;;;;;;24.45;5.35;;;10.60;99.90;;;;;;5009320;28;20570;-79
2023/01/04 14:56:44;;;;;;;29.90;5.10;;;10.60;99.90;;;;;;4990711;28;20124;-78
2023/01/04 14:59:11;;;;;;;29.50;5.90;;;10.60;99.90;;;;;;4991035;28;20049;-79